Time;durP1;ratioP1;P1;durP2;ratioP2;P2;SDS_P1;SDS_P2;PMS_P1;PMS_P2;Temp;Humidity;BMP_temperature;BMP_pressure;BME280_temperature;BME280_humidity;BME280_pressure;Samples;Min_cycle;Max_cycle;Signal;HPM_P1;HPM_P2
2023/07/01 00:02:18;;;;;;;9.23;4.28;;;16.00;99.90;;;;;;4916457;29;20115;-79
2023/07/01 00:05:04;;;;;;;10.38;4.57;;;16.00;99.90;;;;;;4903407;29;20143;-79
2023/07/01 00:07:50;;;;;;;8.15;4.45;;;15.90;99.90;;;;;;4895947;29;20334;-79
2023/07/01 00:10:36;;;;;;;9.93;4.93;;;15.90;99.90;;;;;;4911101;29;20486;-79
2023/07/01 00:13:24;;;;;;;6.22;4.85;;;15.80;99.90;;;;;;4932214;29;20054;-79
2023/07/01 00:16:13;;;;;;;9.90;4.30;;;15.80;99.90;;;;;;4906094;29;20068;-79
2023/07/01 00:18:59;;;;;;;6.90;4.80;;;15.70;99.90;;;;;;4903709;29;20047;-79
2023/07/01 00:21:45;;;;;;;8.32;4.85;;;15.70;99.90;;;;;;4908960;29;20063;-79
2023/07/01 00:24:31;;;;;;;6.80;5.20;;;15.60;99.90;;;;;;4929826;29;20397;-78
2023/07/01 00:27:17;;;;;;;10.88;4.80;;;15.60;99.90;;;;;;4895297;29;20035;-78
2023/07/01 00:30:03;;;;;;;8.38;4.78;;;15.60;99.90;;;;;;4919346;29;20075;-78
2023/07/01 00:32:49;;;;;;;9.32;4.38;;;15.50;99.90;;;;;;4889526;29;20080;-78
2023/07/01 00:35:35;;;;;;;9.35;4.78;;;15.50;99.90;;;;;;4934992;29;20070;-78
2023/07/01 00:38:21;;;;;;;9.30;4.70;;;15.40;99.90;;;;;;4909578;29;20117;-79
2023/07/01 00:41:07;;;;;;;7.43;4.30;;;15.40;99.90;;;;;;4915419;29;20067;-79
2023/07/01 00:43:53;;;;;;;7.82;4.60;;;15.30;99.90;;;;;;4916594;29;20393;-79
2023/07/01 00:46:39;;;;;;;7.57;4.60;;;15.30;99.90;;;;;;4906053;29;20131;-79
2023/07/01 00:49:26;;;;;;;7.28;5.05;;;15.30;99.90;;;;;;4928093;29;20040;-79
2023/07/01 00:52:12;;;;;;;10.98;5.30;;;15.20;99.90;;;;;;4915516;29;20051;-79
2023/07/01 00:54:58;;;;;;;7.00;4.20;;;15.20;99.90;;;;;;4905493;29;20048;-78
2023/07/01 00:57:44;;;;;;;8.05;4.75;;;15.20;99.90;;;;;;4923666;29;20048;-78
2023/07/01 01:00:30;;;;;;;7.15;4.10;;;15.20;99.90;;;;;;4896663;29;20471;-79
2023/07/01 01:03:26;;;;;;;12.40;4.30;;;15.20;99.90;;;;;;4886687;29;20095;-79
2023/07/01 01:06:19;;;;;;;7.20;4.22;;;15.20;99.90;;;;;;4917297;29;20187;-79
2023/07/01 01:09:10;;;;;;;9.70;4.00;;;15.10;99.90;;;;;;4897885;29;20436;-79
2023/07/01 01:11:56;;;;;;;7.35;4.10;;;15.20;99.90;;;;;;4909347;29;20028;-79
2023/07/01 01:14:42;;;;;;;13.30;4.80;;;15.20;99.90;;;;;;4895050;29;20050;-79
2023/07/01 01:17:28;;;;;;;9.98;4.95;;;15.10;99.90;;;;;;4924650;29;20039;-79
2023/07/01 01:20:16;;;;;;;8.38;4.75;;;15.10;99.90;;;;;;4919389;29;20052;-79
2023/07/01 01:23:13;;;;;;;7.35;4.25;;;15.10;99.90;;;;;;4924999;29;20079;-78
2023/07/01 01:26:26;;;;;;;6.80;4.30;;;15.10;99.90;;;;;;4924449;29;20107;-79
2023/07/01 01:29:13;;;;;;;8.05;4.25;;;15.00;99.90;;;;;;4922862;29;20040;-79
2023/07/01 01:31:59;;;;;;;10.13;4.30;;;15.00;99.90;;;;;;4920787;29;20044;-79
2023/07/01 01:34:57;;;;;;;10.05;4.60;;;15.00;99.90;;;;;;4926214;29;20492;-79
2023/07/01 01:37:48;;;;;;;8.60;4.50;;;15.00;99.90;;;;;;4914277;29;20048;-79
2023/07/01 01:40:57;;;;;;;8.55;4.18;;;14.90;99.90;;;;;;4911267;29;20040;-79
2023/07/01 01:43:55;;;;;;;7.57;4.13;;;14.80;99.90;;;;;;4918042;29;20044;-79
2023/07/01 01:46:41;;;;;;;10.55;4.65;;;14.90;99.90;;;;;;4912383;29;20044;-79
2023/07/01 01:49:27;;;;;;;11.95;3.85;;;14.70;99.90;;;;;;4918721;29;20044;-79
2023/07/01 01:52:17;;;;;;;10.07;3.53;;;14.80;99.90;;;;;;4893699;29;20040;-79
2023/07/01 01:55:03;;;;;;;9.48;4.00;;;14.70;99.90;;;;;;4920614;29;20052;-79
2023/07/01 01:57:49;;;;;;;8.98;3.97;;;14.70;99.90;;;;;;4916597;29;20043;-79
2023/07/01 02:00:35;;;;;;;11.63;4.07;;;14.70;99.90;;;;;;4910780;29;20520;-79
2023/07/01 02:03:21;;;;;;;10.73;3.58;;;14.60;99.90;;;;;;4916760;29;20047;-79
2023/07/01 02:06:07;;;;;;;8.68;3.88;;;14.60;99.90;;;;;;4932660;29;20178;-79
2023/07/01 02:08:53;;;;;;;6.28;3.83;;;14.60;99.90;;;;;;4920968;29;20127;-79
2023/07/01 02:11:39;;;;;;;7.32;3.58;;;14.50;99.90;;;;;;4902930;29;20039;-78
2023/07/01 02:14:25;;;;;;;9.23;3.85;;;14.50;99.90;;;;;;4923534;29;20381;-78
2023/07/01 02:17:12;;;;;;;8.70;3.90;;;14.50;99.90;;;;;;4926681;29;20054;-78
2023/07/01 02:19:59;;;;;;;9.18;4.10;;;14.50;99.90;;;;;;4934944;29;20062;-78
2023/07/01 02:22:45;;;;;;;9.30;4.20;;;14.60;99.90;;;;;;4905832;29;20054;-78
2023/07/01 02:25:31;;;;;;;8.77;4.22;;;14.50;99.90;;;;;;4904940;29;20381;-78
2023/07/01 02:28:18;;;;;;;10.00;4.40;;;14.50;99.90;;;;;;4921938;29;20055;-78
2023/07/01 02:31:04;;;;;;;8.18;3.50;;;14.60;99.90;;;;;;4916315;29;20152;-78
2023/07/01 02:33:50;;;;;;;12.18;4.43;;;14.60;99.90;;;;;;4922841;29;20048;-78
2023/07/01 02:36:40;;;;;;;8.55;3.70;;;14.60;99.90;;;;;;4899680;29;20044;-78
2023/07/01 02:39:26;;;;;;;8.60;3.80;;;14.60;99.90;;;;;;4887824;29;20482;-78
2023/07/01 02:42:12;;;;;;;9.27;3.72;;;14.60;99.90;;;;;;4894137;29;20058;-78
2023/07/01 02:44:58;;;;;;;11.30;3.90;;;14.50;99.90;;;;;;4902530;29;20127;-78
2023/07/01 02:47:44;;;;;;;11.68;4.20;;;14.40;99.90;;;;;;4918307;29;20044;-78
2023/07/01 02:50:30;;;;;;;10.88;3.75;;;14.40;99.90;;;;;;4900068;29;20560;-78
2023/07/01 02:53:18;;;;;;;10.10;3.80;;;14.40;99.90;;;;;;4908933;29;20509;-78
2023/07/01 02:56:04;;;;;;;9.95;3.08;;;14.40;99.90;;;;;;4918819;29;20073;-78
2023/07/01 02:58:50;;;;;;;14.90;3.88;;;14.40;99.90;;;;;;4903360;29;20101;-78
2023/07/01 03:01:36;;;;;;;12.35;4.05;;;14.40;99.90;;;;;;4922965;29;20138;-78
2023/07/01 03:04:22;;;;;;;7.07;3.33;;;14.50;99.90;;;;;;4929260;29;20392;-78
2023/07/01 03:07:09;;;;;;;11.43;3.55;;;14.50;99.90;;;;;;4895770;29;20119;-78
2023/07/01 03:09:55;;;;;;;8.77;3.15;;;14.50;99.90;;;;;;4900373;29;20107;-78
2023/07/01 03:12:41;;;;;;;7.57;3.10;;;14.50;99.90;;;;;;4891729;29;20394;-79
2023/07/01 03:15:27;;;;;;;7.60;2.92;;;14.50;99.90;;;;;;4912853;29;20035;-79
2023/07/01 03:18:14;;;;;;;9.00;3.20;;;14.60;99.90;;;;;;4885352;29;20051;-78
2023/07/01 03:21:01;;;;;;;5.57;3.23;;;14.50;99.90;;;;;;4908390;29;20044;-78
2023/07/01 03:23:47;;;;;;;6.80;2.90;;;14.60;99.90;;;;;;4912872;29;20049;-79
2023/07/01 03:26:33;;;;;;;11.80;3.55;;;14.60;99.90;;;;;;4891717;29;20525;-79
2023/07/01 03:29:19;;;;;;;9.13;2.90;;;14.50;99.90;;;;;;4909866;29;20111;-79
2023/07/01 03:32:05;;;;;;;8.30;3.22;;;14.50;99.90;;;;;;4902970;29;20106;-79
2023/07/01 03:34:51;;;;;;;6.05;2.72;;;14.60;99.90;;;;;;4910240;29;20182;-79
2023/07/01 03:37:42;;;;;;;10.13;2.90;;;14.50;99.90;;;;;;4904281;29;20043;-79
2023/07/01 03:40:28;;;;;;;7.88;2.58;;;14.50;99.90;;;;;;4908173;29;20048;-79
2023/07/01 03:43:14;;;;;;;6.07;2.22;;;14.50;99.90;;;;;;4920858;29;20040;-79
2023/07/01 03:46:00;;;;;;;10.38;2.63;;;14.50;99.90;;;;;;4913227;29;20039;-79
2023/07/01 03:48:46;;;;;;;9.93;2.80;;;14.50;99.90;;;;;;4916091;29;20075;-79
2023/07/01 03:51:32;;;;;;;7.63;3.03;;;14.50;99.90;;;;;;4904188;29;20044;-79
2023/07/01 03:54:18;;;;;;;7.60;3.10;;;14.60;99.90;;;;;;4911235;29;20047;-79
2023/07/01 03:57:05;;;;;;;10.38;3.50;;;14.60;99.90;;;;;;4921553;29;20138;-79
2023/07/01 03:59:51;;;;;;;10.43;2.60;;;14.60;99.90;;;;;;4893490;29;20369;-79
2023/07/01 04:02:37;;;;;;;12.25;3.20;;;14.60;99.90;;;;;;4921578;29;20087;-79
2023/07/01 04:05:23;;;;;;;8.75;3.22;;;14.60;99.90;;;;;;4914472;29;20117;-79
2023/07/01 04:08:09;;;;;;;12.15;3.08;;;14.50;99.90;;;;;;4921274;29;20147;-79
2023/07/01 04:10:55;;;;;;;11.73;2.60;;;14.50;99.90;;;;;;4900289;29;20163;-79
2023/07/01 04:13:41;;;;;;;9.23;2.63;;;14.50;99.90;;;;;;4894429;29;20040;-79
2023/07/01 04:16:27;;;;;;;9.13;2.70;;;14.60;99.90;;;;;;4924195;29;20098;-79
2023/07/01 04:19:13;;;;;;;8.75;2.47;;;14.60;99.90;;;;;;4918221;29;20040;-79
2023/07/01 04:21:59;;;;;;;10.93;2.67;;;14.60;99.90;;;;;;4908569;29;20196;-79
2023/07/01 04:24:45;;;;;;;14.32;3.00;;;14.60;99.90;;;;;;4905324;29;20044;-78
2023/07/01 04:27:32;;;;;;;12.20;2.85;;;14.70;99.90;;;;;;4895477;29;20513;-78
2023/07/01 04:30:18;;;;;;;12.73;3.13;;;14.70;99.90;;;;;;4911432;29;20529;-79
2023/07/01 04:33:04;;;;;;;6.30;2.60;;;14.60;99.90;;;;;;4918980;29;20346;-79
2023/07/01 04:35:50;;;;;;;8.90;2.90;;;14.70;99.90;;;;;;4918524;29;20486;-79
2023/07/01 04:38:36;;;;;;;13.70;3.20;;;14.60;99.90;;;;;;4919651;29;20075;-79
2023/07/01 04:41:22;;;;;;;8.50;3.08;;;14.70;99.90;;;;;;4905530;29;20039;-79
2023/07/01 04:44:11;;;;;;;8.35;2.47;;;14.70;99.90;;;;;;4921529;29;20055;-79
2023/07/01 04:46:57;;;;;;;8.75;2.63;;;14.80;99.90;;;;;;4906896;29;20035;-79
2023/07/01 04:49:43;;;;;;;11.10;2.65;;;14.80;99.90;;;;;;4906483;29;20119;-79
2023/07/01 04:52:29;;;;;;;6.57;2.70;;;14.80;99.90;;;;;;4892836;29;20033;-79
2023/07/01 04:55:15;;;;;;;7.60;3.33;;;14.90;99.90;;;;;;4921262;29;20091;-79
2023/07/01 04:58:01;;;;;;;7.68;2.40;;;15.00;99.90;;;;;;4913730;29;20050;-79
2023/07/01 05:00:47;;;;;;;4.88;2.17;;;15.00;99.90;;;;;;4879636;29;20047;-79
2023/07/01 05:03:33;;;;;;;11.93;2.25;;;15.10;99.90;;;;;;4923891;29;20466;-79
2023/07/01 05:06:19;;;;;;;10.00;2.40;;;15.20;99.90;;;;;;4906333;29;20068;-79
2023/07/01 05:09:06;;;;;;;8.35;2.72;;;15.20;99.90;;;;;;4896193;29;20111;-79
2023/07/01 05:11:52;;;;;;;4.75;2.55;;;15.30;99.90;;;;;;4915095;29;20079;-78
2023/07/01 05:14:38;;;;;;;10.70;2.90;;;15.30;99.90;;;;;;4896224;29;20059;-79
2023/07/01 05:17:24;;;;;;;5.15;2.30;;;15.30;99.90;;;;;;4909832;29;20470;-79
2023/07/01 05:20:11;;;;;;;11.30;2.80;;;15.40;99.90;;;;;;4906591;29;20141;-79
2023/07/01 05:22:57;;;;;;;6.60;2.63;;;15.40;99.90;;;;;;4928401;29;20373;-79
2023/07/01 05:25:43;;;;;;;8.15;2.17;;;15.50;99.90;;;;;;4918323;29;20043;-79
2023/07/01 05:28:29;;;;;;;6.80;2.25;;;15.60;99.90;;;;;;4899172;29;20052;-78
2023/07/01 05:31:15;;;;;;;8.18;2.50;;;15.60;99.90;;;;;;4920231;29;20071;-79
2023/07/01 05:34:01;;;;;;;6.70;2.17;;;15.70;99.90;;;;;;4912991;29;20142;-79
2023/07/01 05:36:47;;;;;;;7.85;2.28;;;15.80;99.90;;;;;;4909890;29;20039;-79
2023/07/01 05:39:33;;;;;;;6.70;2.40;;;15.90;99.90;;;;;;4917445;29;20074;-79
2023/07/01 05:42:19;;;;;;;4.93;2.40;;;15.90;99.90;;;;;;4882377;29;20047;-79
2023/07/01 05:45:05;;;;;;;5.22;2.33;;;16.00;99.90;;;;;;4912459;29;20055;-79
2023/07/01 05:47:52;;;;;;;5.55;2.53;;;16.10;99.90;;;;;;4892528;29;20488;-78
2023/07/01 05:50:39;;;;;;;10.73;2.50;;;16.20;99.90;;;;;;4910767;29;20389;-79
2023/07/01 05:53:25;;;;;;;5.90;2.55;;;16.20;99.90;;;;;;4891278;29;20147;-79
2023/07/01 05:56:11;;;;;;;5.68;2.40;;;16.30;99.90;;;;;;4926631;29;20612;-79
2023/07/01 05:58:57;;;;;;;7.22;2.42;;;16.40;99.90;;;;;;4928263;29;20489;-79
2023/07/01 06:01:43;;;;;;;14.82;2.75;;;16.40;99.90;;;;;;4908639;29;20052;-79
2023/07/01 06:04:29;;;;;;;4.43;2.15;;;16.50;99.90;;;;;;4896965;29;20504;-79
2023/07/01 06:07:15;;;;;;;5.35;2.35;;;16.60;99.90;;;;;;4916896;29;20043;-78
2023/07/01 06:10:02;;;;;;;4.18;1.90;;;16.70;99.90;;;;;;4908876;29;20040;-79
2023/07/01 06:12:48;;;;;;;6.80;2.22;;;16.80;99.90;;;;;;4918312;29;20540;-79
2023/07/01 06:15:34;;;;;;;6.30;2.08;;;16.90;99.90;;;;;;4891606;29;20048;-79
2023/07/01 06:18:20;;;;;;;5.25;1.92;;;17.00;99.90;;;;;;4925549;29;20123;-79
2023/07/01 06:21:06;;;;;;;5.00;1.70;;;17.10;99.90;;;;;;4901482;29;20044;-79
2023/07/01 06:23:55;;;;;;;3.33;1.98;;;17.20;99.90;;;;;;4923699;29;20051;-78
2023/07/01 06:26:41;;;;;;;6.30;1.83;;;17.20;99.90;;;;;;4916614;29;20572;-79
2023/07/01 06:29:27;;;;;;;4.72;2.05;;;17.40;99.90;;;;;;4893796;29;20044;-79
2023/07/01 06:32:13;;;;;;;8.15;2.15;;;17.50;99.90;;;;;;4920296;29;20067;-79
2023/07/01 06:34:59;;;;;;;4.63;1.70;;;17.50;99.90;;;;;;4904852;29;20043;-79
2023/07/01 06:37:46;;;;;;;4.00;2.20;;;17.60;99.90;;;;;;4910069;29;20071;-79
2023/07/01 06:40:35;;;;;;;7.78;2.50;;;17.60;99.90;;;;;;4924653;29;20047;-78
2023/07/01 06:43:20;;;;;;;3.78;1.60;;;17.70;99.90;;;;;;4907437;29;20054;-79
2023/07/01 06:46:06;;;;;;;5.07;2.17;;;17.80;99.90;;;;;;4913914;29;20084;-79
2023/07/01 06:48:54;;;;;;;3.30;1.77;;;18.00;99.90;;;;;;4909875;29;20103;-79
2023/07/01 06:51:41;;;;;;;6.82;2.40;;;18.10;99.90;;;;;;4907216;29;20048;-79
2023/07/01 06:54:27;;;;;;;5.93;2.30;;;18.20;99.90;;;;;;4902016;29;20549;-79
2023/07/01 06:57:13;;;;;;;4.47;1.67;;;18.40;99.90;;;;;;4907655;29;20060;-79
2023/07/01 07:00:00;;;;;;;7.32;1.90;;;18.40;99.90;;;;;;4901448;29;20366;-79
2023/07/01 07:02:46;;;;;;;5.07;2.10;;;18.60;99.60;;;;;;4890736;29;20063;-79
2023/07/01 07:05:33;;;;;;;4.60;1.75;;;18.70;99.50;;;;;;4918939;29;20043;-79
2023/07/01 07:08:19;;;;;;;4.13;2.00;;;18.90;98.00;;;;;;4906610;29;20108;-79
2023/07/01 07:11:05;;;;;;;4.20;1.80;;;19.00;98.30;;;;;;4906313;29;20259;-79
2023/07/01 07:13:51;;;;;;;6.85;1.95;;;19.00;97.70;;;;;;4914779;29;20043;-79
2023/07/01 07:16:37;;;;;;;5.93;1.98;;;18.90;98.00;;;;;;4890690;29;20525;-79
2023/07/01 07:19:23;;;;;;;5.13;2.25;;;19.00;97.60;;;;;;4919419;29;20071;-79
2023/07/01 07:22:09;;;;;;;7.90;2.05;;;18.90;97.10;;;;;;4909725;29;20043;-79
2023/07/01 07:24:56;;;;;;;6.68;2.33;;;19.00;97.00;;;;;;4912472;29;20048;-79
2023/07/01 07:27:44;;;;;;;4.15;1.60;;;19.00;97.40;;;;;;4926021;29;20065;-79
2023/07/01 07:30:30;;;;;;;6.60;2.15;;;18.90;97.20;;;;;;4874018;29;20513;-79
2023/07/01 07:33:16;;;;;;;4.53;1.83;;;18.90;97.30;;;;;;4885879;29;20059;-79
2023/07/01 07:36:03;;;;;;;5.25;1.67;;;19.00;97.50;;;;;;4894721;29;20086;-79
2023/07/01 07:38:49;;;;;;;8.55;2.55;;;18.90;97.60;;;;;;4903778;29;20545;-79
2023/07/01 07:41:34;;;;;;;4.45;1.90;;;18.90;96.80;;;;;;4906732;29;20075;-79
2023/07/01 07:44:21;;;;;;;5.13;2.45;;;18.90;96.60;;;;;;4911221;29;20055;-79
2023/07/01 07:47:07;;;;;;;5.72;1.85;;;18.90;97.00;;;;;;4920998;29;20430;-79
2023/07/01 07:49:53;;;;;;;4.70;1.60;;;18.90;97.10;;;;;;4893273;29;20040;-79
2023/07/01 07:52:39;;;;;;;6.45;2.10;;;19.00;97.20;;;;;;4925435;29;20040;-79
2023/07/01 07:55:33;;;;;;;5.18;1.88;;;19.10;97.40;;;;;;4919616;29;20194;-79
2023/07/01 07:58:19;;;;;;;6.68;1.80;;;19.00;96.90;;;;;;4922378;29;20423;-79
2023/07/01 08:01:05;;;;;;;7.32;2.42;;;19.10;96.70;;;;;;4916844;29;20039;-79
2023/07/01 08:03:51;;;;;;;4.45;1.80;;;19.10;96.80;;;;;;4881730;29;20051;-79
2023/07/01 08:06:37;;;;;;;7.78;1.90;;;19.10;97.20;;;;;;4888008;29;20100;-79
2023/07/01 08:09:23;;;;;;;4.40;1.80;;;19.10;97.20;;;;;;4875358;29;20055;-79
2023/07/01 08:12:09;;;;;;;4.35;1.73;;;19.10;97.10;;;;;;4900630;29;20047;-79
2023/07/01 08:14:55;;;;;;;5.90;1.83;;;19.10;96.80;;;;;;4882968;29;20049;-79
2023/07/01 08:17:42;;;;;;;7.55;1.90;;;19.20;97.10;;;;;;4880513;29;20040;-79
2023/07/01 08:20:28;;;;;;;4.40;1.88;;;19.20;96.60;;;;;;4892229;29;20044;-79
2023/07/01 08:23:15;;;;;;;6.93;1.80;;;19.20;96.80;;;;;;4913560;29;20389;-78
2023/07/01 08:26:01;;;;;;;3.33;1.80;;;19.20;97.00;;;;;;4900913;29;20048;-78
2023/07/01 08:28:47;;;;;;;3.78;1.60;;;19.20;97.10;;;;;;4883461;29;20493;-79
2023/07/01 08:31:33;;;;;;;4.82;2.05;;;19.20;96.80;;;;;;4894309;29;20048;-79
2023/07/01 08:34:19;;;;;;;5.65;1.70;;;19.20;97.00;;;;;;4889577;29;20378;-79
2023/07/01 08:37:05;;;;;;;5.05;3.42;;;19.30;97.10;;;;;;4862013;29;20043;-79
2023/07/01 08:39:51;;;;;;;4.35;1.65;;;19.30;97.00;;;;;;4893178;29;20093;-79
2023/07/01 08:42:50;;;;;;;4.63;1.90;;;19.30;96.70;;;;;;4897243;29;20111;-79
2023/07/01 08:45:36;;;;;;;3.60;1.75;;;19.40;96.60;;;;;;4889990;29;20118;-79
2023/07/01 08:48:26;;;;;;;4.00;1.75;;;19.40;96.60;;;;;;4890639;29;20048;-79
2023/07/01 08:51:20;;;;;;;6.07;1.85;;;19.50;96.70;;;;;;4859725;29;20132;-79
2023/07/01 08:54:06;;;;;;;6.65;1.90;;;19.50;96.30;;;;;;4898464;29;20047;-79
2023/07/01 08:56:52;;;;;;;5.70;1.58;;;19.50;96.60;;;;;;4890097;29;20051;-79
2023/07/01 08:59:38;;;;;;;7.32;1.70;;;19.50;97.00;;;;;;4892472;29;20372;-79
2023/07/01 09:02:24;;;;;;;6.75;2.22;;;19.60;96.90;;;;;;4884771;29;20062;-79
2023/07/01 09:05:10;;;;;;;4.78;1.75;;;19.60;96.50;;;;;;4919017;29;20052;-79
2023/07/01 09:07:56;;;;;;;5.72;1.70;;;19.60;96.20;;;;;;4916337;29;20040;-79
2023/07/01 09:10:43;;;;;;;5.10;1.75;;;19.70;95.80;;;;;;4918303;29;20071;-79
2023/07/01 09:13:29;;;;;;;3.08;1.67;;;19.80;96.50;;;;;;4917498;29;20108;-79
2023/07/01 09:16:30;;;;;;;6.60;2.10;;;19.80;96.40;;;;;;4930708;29;20170;-79
2023/07/01 09:19:21;;;;;;;5.38;1.80;;;19.90;96.20;;;;;;4939597;29;20047;-79
2023/07/01 09:22:10;;;;;;;9.35;3.33;;;19.90;96.60;;;;;;4901975;29;20040;-79
2023/07/01 09:24:56;;;;;;;4.07;1.73;;;20.00;96.50;;;;;;4925992;29;20074;-79
2023/07/01 09:27:46;;;;;;;6.43;2.30;;;20.10;96.30;;;;;;4916940;29;20036;-79
2023/07/01 09:30:33;;;;;;;7.63;2.35;;;20.20;96.70;;;;;;4898031;29;20054;-79
2023/07/01 09:33:19;;;;;;;8.90;2.70;;;20.30;95.60;;;;;;4916894;29;20489;-79
2023/07/01 09:36:05;;;;;;;6.88;2.40;;;20.20;95.10;;;;;;4891486;29;20048;-79
2023/07/01 09:38:51;;;;;;;4.65;2.30;;;20.10;94.70;;;;;;4924157;29;20071;-78
2023/07/01 09:41:37;;;;;;;6.85;2.20;;;20.20;95.80;;;;;;4930732;29;20122;-78
2023/07/01 09:44:23;;;;;;;5.85;2.30;;;20.20;95.30;;;;;;4921469;29;20130;-78
2023/07/01 09:47:12;;;;;;;7.95;2.05;;;20.20;95.20;;;;;;4920999;29;20552;-79
2023/07/01 09:49:59;;;;;;;6.07;2.25;;;20.20;95.20;;;;;;4918783;29;20051;-79
2023/07/01 09:52:45;;;;;;;6.73;2.20;;;20.10;95.10;;;;;;4918982;29;20104;-79
2023/07/01 09:55:32;;;;;;;8.82;2.25;;;20.20;95.40;;;;;;4902431;29;20047;-79
2023/07/01 09:58:18;;;;;;;4.18;2.08;;;20.20;95.40;;;;;;4928092;29;20052;-79
2023/07/01 10:01:04;;;;;;;5.03;2.08;;;20.30;95.20;;;;;;4929842;29;20110;-78
2023/07/01 10:03:49;;;;;;;5.80;2.33;;;20.20;94.70;;;;;;4920749;29;20057;-79
2023/07/01 10:06:35;;;;;;;6.00;2.30;;;20.20;95.40;;;;;;4922653;29;20083;-79
2023/07/01 10:09:23;;;;;;;6.63;2.70;;;20.20;95.40;;;;;;4909923;29;20036;-79
2023/07/01 10:12:09;;;;;;;8.30;2.72;;;20.20;95.60;;;;;;4924822;29;20044;-79
2023/07/01 10:14:55;;;;;;;9.75;3.22;;;20.30;95.70;;;;;;4929068;29;20039;-79
2023/07/01 10:17:51;;;;;;;6.15;2.95;;;20.30;95.80;;;;;;4928823;29;20054;-79
2023/07/01 10:20:38;;;;;;;7.03;2.92;;;20.20;95.40;;;;;;4919945;29;20470;-79
2023/07/01 10:23:24;;;;;;;7.07;2.30;;;20.30;96.00;;;;;;4917895;29;20105;-79
2023/07/01 10:26:39;;;;;;;9.48;2.83;;;20.20;95.00;;;;;;4917739;29;20047;-79
2023/07/01 10:29:28;;;;;;;9.25;2.80;;;20.20;95.00;;;;;;4907831;29;20126;-78
2023/07/01 10:32:16;;;;;;;6.97;2.85;;;20.20;95.00;;;;;;4920054;29;20040;-78
2023/07/01 10:35:05;;;;;;;8.73;2.70;;;20.20;95.00;;;;;;4917333;29;20082;-78
2023/07/01 10:38:21;;;;;;;6.45;3.40;;;20.20;94.70;;;;;;4918295;29;20044;-79
2023/07/01 10:41:07;;;;;;;8.32;2.83;;;20.20;95.10;;;;;;4904419;29;20540;-79
2023/07/01 10:44:23;;;;;;;8.23;3.55;;;20.30;95.20;;;;;;4921915;29;20418;-79
2023/07/01 10:47:13;;;;;;;9.63;2.60;;;20.30;95.10;;;;;;4908247;29;20042;-79
2023/07/01 10:50:00;;;;;;;5.40;2.67;;;20.40;95.50;;;;;;4894966;29;20044;-79
2023/07/01 10:52:58;;;;;;;5.72;2.20;;;20.50;95.20;;;;;;4929632;29;20040;-79
2023/07/01 10:55:46;;;;;;;4.30;2.50;;;20.50;95.20;;;;;;4907605;29;20064;-79
2023/07/01 10:58:32;;;;;;;6.93;2.42;;;20.50;95.20;;;;;;4900691;29;20099;-79
2023/07/01 11:01:43;;;;;;;6.35;2.08;;;20.40;95.20;;;;;;4934552;29;20118;-79
2023/07/01 11:04:52;;;;;;;5.72;2.25;;;20.40;95.10;;;;;;4929226;29;20048;-79
2023/07/01 11:07:41;;;;;;;6.13;2.20;;;20.30;95.70;;;;;;4912272;29;20126;-79
2023/07/01 11:10:28;;;;;;;4.32;2.10;;;20.30;96.20;;;;;;4917038;29;20135;-79
2023/07/01 11:13:15;;;;;;;4.97;2.20;;;20.30;96.10;;;;;;4871725;29;20076;-79
2023/07/01 11:16:09;;;;;;;5.18;2.40;;;20.30;96.50;;;;;;4900582;29;20043;-79
2023/07/01 11:18:56;;;;;;;9.52;2.20;;;20.30;97.00;;;;;;4909354;29;20503;-79
2023/07/01 11:21:43;;;;;;;6.85;2.58;;;20.30;97.00;;;;;;4912005;29;20116;-79
2023/07/01 11:24:32;;;;;;;4.63;2.10;;;20.30;96.30;;;;;;4893229;29;20417;-79
2023/07/01 11:27:21;;;;;;;5.28;2.00;;;20.20;96.30;;;;;;4915359;29;20363;-79
2023/07/01 11:30:07;;;;;;;3.95;2.00;;;20.10;97.10;;;;;;4904969;29;20071;-79
2023/07/01 11:32:53;;;;;;;5.10;1.90;;;20.10;97.10;;;;;;4911292;29;20043;-79
2023/07/01 11:35:49;;;;;;;7.30;2.50;;;20.00;97.80;;;;;;4916088;29;20068;-79
2023/07/01 11:38:36;;;;;;;4.97;2.10;;;20.00;98.10;;;;;;4895295;29;20040;-79
2023/07/01 11:41:23;;;;;;;3.95;2.30;;;19.90;97.30;;;;;;4914565;29;20517;-79
2023/07/01 11:44:13;;;;;;;6.47;2.42;;;19.90;97.70;;;;;;4925808;29;20047;-79
2023/07/01 11:46:59;;;;;;;6.88;2.50;;;19.90;97.90;;;;;;4918162;29;20048;-79
2023/07/01 11:49:45;;;;;;;4.68;2.15;;;19.90;97.90;;;;;;4903112;29;20051;-79
2023/07/01 11:52:31;;;;;;;6.85;2.30;;;19.80;98.00;;;;;;4897383;29;20050;-79
2023/07/01 11:55:36;;;;;;;4.28;2.28;;;19.80;98.00;;;;;;4928010;29;20104;-78
2023/07/01 11:58:32;;;;;;;3.17;2.00;;;19.90;98.20;;;;;;4919265;29;20058;-78
2023/07/01 12:01:25;;;;;;;5.90;2.67;;;19.90;98.70;;;;;;4914912;29;20438;-78
2023/07/01 12:04:36;;;;;;;4.55;2.30;;;19.90;98.50;;;;;;4917584;29;20116;-78
2023/07/01 12:07:22;;;;;;;4.47;2.53;;;19.90;98.70;;;;;;4915429;29;20097;-78
2023/07/01 12:10:20;;;;;;;6.95;2.60;;;19.90;99.60;;;;;;4895040;29;20491;-78
2023/07/01 12:13:07;;;;;;;8.10;2.58;;;19.90;99.70;;;;;;4919817;29;20039;-78
2023/07/01 12:15:54;;;;;;;5.05;2.55;;;19.90;99.90;;;;;;4889130;29;20059;-78
2023/07/01 12:18:40;;;;;;;7.20;2.47;;;19.90;99.90;;;;;;4901304;29;20040;-78
2023/07/01 12:21:28;;;;;;;7.03;3.03;;;19.80;99.90;;;;;;4920292;29;20100;-79
2023/07/01 12:24:27;;;;;;;5.47;2.45;;;19.80;99.90;;;;;;4911607;29;20051;-79
2023/07/01 12:27:13;;;;;;;6.85;2.67;;;19.70;99.90;;;;;;4892991;29;20043;-79
2023/07/01 12:29:59;;;;;;;6.53;2.50;;;19.70;99.90;;;;;;4912672;29;20043;-79
2023/07/01 12:32:48;;;;;;;5.03;2.28;;;19.70;99.90;;;;;;4919374;29;20127;-78
2023/07/01 12:35:35;;;;;;;4.60;2.55;;;19.70;99.90;;;;;;4913822;29;20044;-78
2023/07/01 12:38:21;;;;;;;3.40;2.28;;;19.80;99.90;;;;;;4931769;29;20126;-78
2023/07/01 12:41:07;;;;;;;7.20;2.97;;;19.80;99.90;;;;;;4907623;29;20123;-78
2023/07/01 12:43:53;;;;;;;7.95;3.33;;;19.70;99.90;;;;;;4919674;29;20047;-79
2023/07/01 12:46:43;;;;;;;8.27;3.15;;;19.60;99.90;;;;;;4917604;29;20154;-78
2023/07/01 12:49:29;;;;;;;4.72;2.70;;;19.50;99.90;;;;;;4925063;29;20040;-79
2023/07/01 12:52:15;;;;;;;8.30;2.80;;;19.50;99.90;;;;;;4904616;29;20039;-78
2023/07/01 12:55:01;;;;;;;7.28;2.90;;;19.60;99.90;;;;;;4903029;29;20047;-79
2023/07/01 12:57:47;;;;;;;5.15;2.33;;;19.60;99.90;;;;;;4916233;29;20055;-79
2023/07/01 13:00:33;;;;;;;4.78;2.50;;;19.60;99.90;;;;;;4930794;29;20058;-79
2023/07/01 13:03:19;;;;;;;5.63;2.33;;;19.60;99.90;;;;;;4912740;29;20040;-79
2023/07/01 13:06:17;;;;;;;6.95;2.70;;;19.60;99.90;;;;;;4915423;29;20064;-79
2023/07/01 13:09:05;;;;;;;5.22;2.63;;;19.50;99.90;;;;;;4913738;29;20036;-79
2023/07/01 13:11:51;;;;;;;7.50;2.80;;;19.50;99.90;;;;;;4895522;29;20429;-79
2023/07/01 13:14:37;;;;;;;6.32;2.65;;;19.50;99.90;;;;;;4907102;29;20051;-79
2023/07/01 13:17:42;;;;;;;9.23;2.88;;;19.50;99.90;;;;;;4909763;29;20055;-79
2023/07/01 13:20:28;;;;;;;9.48;2.95;;;19.50;99.90;;;;;;4917779;29;20044;-79
2023/07/01 13:23:14;;;;;;;8.73;2.97;;;19.50;99.90;;;;;;4908608;29;20044;-79
2023/07/01 13:26:00;;;;;;;5.15;2.88;;;19.50;99.90;;;;;;4917787;29;20044;-78
2023/07/01 13:28:46;;;;;;;6.35;3.10;;;19.40;99.90;;;;;;4898434;29;20385;-79
2023/07/01 13:31:32;;;;;;;7.90;3.05;;;19.40;99.90;;;;;;4918837;29;20115;-79
2023/07/01 13:34:18;;;;;;;8.52;3.15;;;19.50;99.90;;;;;;4895589;29;20756;-79
2023/07/01 13:37:05;;;;;;;9.07;3.13;;;19.40;99.90;;;;;;4923657;29;20074;-79
2023/07/01 13:39:51;;;;;;;6.22;3.28;;;19.50;99.90;;;;;;4908698;29;20137;-79
2023/07/01 13:42:37;;;;;;;7.72;3.50;;;19.50;99.90;;;;;;4913164;29;20055;-79
2023/07/01 13:45:26;;;;;;;7.65;3.53;;;19.60;99.90;;;;;;4925139;29;20132;-79
2023/07/01 13:48:35;;;;;;;8.35;3.30;;;19.60;99.90;;;;;;4934355;29;20075;-80
2023/07/01 13:51:21;;;;;;;8.07;3.50;;;19.60;99.90;;;;;;4907678;29;20123;-79
2023/07/01 13:54:08;;;;;;;8.60;3.40;;;19.50;99.90;;;;;;4913963;29;20533;-79
2023/07/01 13:56:56;;;;;;;6.85;2.95;;;19.60;99.90;;;;;;4927684;29;20043;-79
2023/07/01 13:59:42;;;;;;;8.57;2.90;;;19.50;99.90;;;;;;4887291;29;20209;-79
2023/07/01 14:02:28;;;;;;;5.93;2.60;;;19.50;99.90;;;;;;4904365;29;20055;-78
2023/07/01 14:05:14;;;;;;;5.03;2.75;;;19.60;99.90;;;;;;4909821;29;20063;-78
2023/07/01 14:08:03;;;;;;;6.13;2.65;;;19.60;99.90;;;;;;4924983;29;20369;-78
2023/07/01 14:10:49;;;;;;;4.15;2.20;;;19.60;99.90;;;;;;4907679;29;20123;-79
2023/07/01 14:13:35;;;;;;;4.28;2.25;;;19.60;99.90;;;;;;4880341;29;20035;-78
2023/07/01 14:16:23;;;;;;;3.97;2.08;;;19.60;99.90;;;;;;4916145;29;20052;-78
2023/07/01 14:19:11;;;;;;;3.33;1.60;;;19.60;99.90;;;;;;4910361;29;20116;-79
2023/07/01 14:21:59;;;;;;;5.60;1.97;;;19.60;99.90;;;;;;4923318;29;20378;-78
2023/07/01 14:24:47;;;;;;;4.97;1.40;;;19.60;99.90;;;;;;4897531;29;20084;-78
2023/07/01 14:27:33;;;;;;;3.63;1.85;;;19.60;99.90;;;;;;4901952;29;20379;-78
2023/07/01 14:30:54;;;;;;;4.95;1.58;;;19.50;99.90;;;;;;4908296;29;20043;-78
2023/07/01 14:33:56;;;;;;;3.25;1.50;;;19.50;99.90;;;;;;4892739;29;20063;-78